sensor_id;sensor_type;location;lat;lon;timestamp;pressure;altitude;pressure_sealevel;temperature;humidity
74466;BME280;62916;50.044;15.938;2023-01-01T00:01:17;99370.40;;;21.92;50.03
74466;BME280;62916;50.044;15.938;2023-01-01T00:03:51;99370.95;;;21.90;49.92
74466;BME280;62916;50.044;15.938;2023-01-01T00:06:22;99370.11;;;21.86;50.22
74466;BME280;62916;50.044;15.938;2023-01-01T00:08:53;99371.38;;;21.83;50.20
74466;BME280;62916;50.044;15.938;2023-01-01T00:11:38;99374.21;;;21.80;50.40
74466;BME280;62916;50.044;15.938;2023-01-01T00:14:09;99372.64;;;21.78;50.34
74466;BME280;62916;50.044;15.938;2023-01-01T00:16:41;99372.14;;;21.76;50.39
74466;BME280;62916;50.044;15.938;2023-01-01T00:19:12;99359.37;;;21.74;50.48
74466;BME280;62916;50.044;15.938;2023-01-01T00:21:43;99354.38;;;21.73;50.47
74466;BME280;62916;50.044;15.938;2023-01-01T00:24:14;99349.25;;;21.72;50.43
74466;BME280;62916;50.044;15.938;2023-01-01T00:26:45;99340.98;;;21.71;50.52
74466;BME280;62916;50.044;15.938;2023-01-01T00:29:16;99343.46;;;21.71;50.68
74466;BME280;62916;50.044;15.938;2023-01-01T00:31:47;99342.71;;;21.72;50.43
74466;BME280;62916;50.044;15.938;2023-01-01T00:34:18;99351.44;;;21.70;50.45
74466;BME280;62916;50.044;15.938;2023-01-01T00:36:49;99353.84;;;21.69;50.68
74466;BME280;62916;50.044;15.938;2023-01-01T00:39:20;99353.45;;;21.69;50.66
74466;BME280;62916;50.044;15.938;2023-01-01T00:41:51;99355.73;;;21.71;50.40
74466;BME280;62916;50.044;15.938;2023-01-01T00:44:21;99362.54;;;21.72;50.61
74466;BME280;62916;50.044;15.938;2023-01-01T00:46:52;99367.48;;;21.75;50.53
74466;BME280;62916;50.044;15.938;2023-01-01T00:49:23;99372.38;;;21.76;50.67
74466;BME280;62916;50.044;15.938;2023-01-01T00:51:54;99377.16;;;21.76;50.44
74466;BME280;62916;50.044;15.938;2023-01-01T00:54:25;99380.55;;;21.78;50.38
74466;BME280;62916;50.044;15.938;2023-01-01T00:56:56;99386.36;;;21.78;50.49
74466;BME280;62916;50.044;15.938;2023-01-01T00:59:26;99398.52;;;21.79;50.18
74466;BME280;62916;50.044;15.938;2023-01-01T01:01:57;99399.85;;;21.80;50.44
74466;BME280;62916;50.044;15.938;2023-01-01T01:04:28;99399.56;;;21.80;50.30
74466;BME280;62916;50.044;15.938;2023-01-01T01:06:59;99405.20;;;21.81;50.39
74466;BME280;62916;50.044;15.938;2023-01-01T01:09:30;99408.70;;;21.81;50.37
74466;BME280;62916;50.044;15.938;2023-01-01T01:12:01;99406.85;;;21.83;50.36
74466;BME280;62916;50.044;15.938;2023-01-01T01:14:47;99414.82;;;21.82;50.30
74466;BME280;62916;50.044;15.938;2023-01-01T01:17:18;99416.81;;;21.82;50.31
74466;BME280;62916;50.044;15.938;2023-01-01T01:19:49;99416.35;;;21.82;50.41
74466;BME280;62916;50.044;15.938;2023-01-01T01:22:19;99418.34;;;21.82;50.33
74466;BME280;62916;50.044;15.938;2023-01-01T01:24:57;99419.46;;;21.82;50.39
74466;BME280;62916;50.044;15.938;2023-01-01T01:27:28;99412.35;;;21.82;50.32
74466;BME280;62916;50.044;15.938;2023-01-01T01:29:59;99412.82;;;21.81;50.42
74466;BME280;62916;50.044;15.938;2023-01-01T01:32:29;99411.83;;;21.80;50.33
74466;BME280;62916;50.044;15.938;2023-01-01T01:35:00;99412.94;;;21.79;50.26
74466;BME280;62916;50.044;15.938;2023-01-01T01:37:31;99413.23;;;21.76;50.42
74466;BME280;62916;50.044;15.938;2023-01-01T01:40:02;99413.02;;;21.77;50.35
74466;BME280;62916;50.044;15.938;2023-01-01T01:42:33;99401.10;;;21.74;50.32
74466;BME280;62916;50.044;15.938;2023-01-01T01:45:08;99394.50;;;21.72;50.44
74466;BME280;62916;50.044;15.938;2023-01-01T01:47:44;99397.92;;;21.77;50.42
74466;BME280;62916;50.044;15.938;2023-01-01T01:50:18;99399.58;;;21.76;50.45
74466;BME280;62916;50.044;15.938;2023-01-01T01:53:00;99394.33;;;21.76;50.47
74466;BME280;62916;50.044;15.938;2023-01-01T01:55:35;99394.46;;;21.75;50.50
74466;BME280;62916;50.044;15.938;2023-01-01T01:58:10;99385.77;;;21.71;50.60
74466;BME280;62916;50.044;15.938;2023-01-01T02:00:42;99392.52;;;21.74;50.51
74466;BME280;62916;50.044;15.938;2023-01-01T02:03:15;99384.38;;;21.74;50.44
74466;BME280;62916;50.044;15.938;2023-01-01T02:05:49;99382.70;;;21.73;50.54
74466;BME280;62916;50.044;15.938;2023-01-01T02:08:21;99378.95;;;21.72;50.57
74466;BME280;62916;50.044;15.938;2023-01-01T02:10:52;99380.60;;;21.72;50.76
74466;BME280;62916;50.044;15.938;2023-01-01T02:13:23;99371.83;;;21.66;50.60
74466;BME280;62916;50.044;15.938;2023-01-01T02:16:06;99374.00;;;21.69;50.63
74466;BME280;62916;50.044;15.938;2023-01-01T02:18:45;99373.41;;;21.68;50.80
74466;BME280;62916;50.044;15.938;2023-01-01T02:21:21;99367.77;;;21.63;50.77
74466;BME280;62916;50.044;15.938;2023-01-01T02:24:00;99378.73;;;21.68;50.67
74466;BME280;62916;50.044;15.938;2023-01-01T02:26:47;99375.04;;;21.66;50.79
74466;BME280;62916;50.044;15.938;2023-01-01T02:29:27;99376.23;;;21.66;50.83
74466;BME280;62916;50.044;15.938;2023-01-01T02:32:05;99380.70;;;21.65;50.93
74466;BME280;62916;50.044;15.938;2023-01-01T02:34:40;99378.88;;;21.64;50.88
74466;BME280;62916;50.044;15.938;2023-01-01T02:37:16;99379.27;;;21.64;50.88
74466;BME280;62916;50.044;15.938;2023-01-01T02:39:52;99379.70;;;21.65;50.95
74466;BME280;62916;50.044;15.938;2023-01-01T02:42:27;99382.02;;;21.63;50.80
74466;BME280;62916;50.044;15.938;2023-01-01T02:44:59;99387.59;;;21.63;51.03
74466;BME280;62916;50.044;15.938;2023-01-01T02:47:30;99389.70;;;21.62;51.06
74466;BME280;62916;50.044;15.938;2023-01-01T02:50:10;99389.20;;;21.62;51.08
74466;BME280;62916;50.044;15.938;2023-01-01T02:52:54;99385.63;;;21.60;50.91
74466;BME280;62916;50.044;15.938;2023-01-01T02:55:40;99383.88;;;21.60;51.11
74466;BME280;62916;50.044;15.938;2023-01-01T02:58:26;99389.92;;;21.60;50.87
74466;BME280;62916;50.044;15.938;2023-01-01T03:01:21;99396.02;;;21.60;51.11
74466;BME280;62916;50.044;15.938;2023-01-01T03:04:03;99397.05;;;21.59;51.10
74466;BME280;62916;50.044;15.938;2023-01-01T03:06:41;99395.42;;;21.57;51.04
74466;BME280;62916;50.044;15.938;2023-01-01T03:09:22;99396.91;;;21.57;51.16
74466;BME280;62916;50.044;15.938;2023-01-01T03:11:55;99392.99;;;21.57;51.06
74466;BME280;62916;50.044;15.938;2023-01-01T03:14:33;99400.60;;;21.56;51.16
74466;BME280;62916;50.044;15.938;2023-01-01T03:17:10;99398.83;;;21.56;51.18
74466;BME280;62916;50.044;15.938;2023-01-01T03:19:46;99404.38;;;21.56;51.11
74466;BME280;62916;50.044;15.938;2023-01-01T03:22:23;99408.69;;;21.55;51.04
74466;BME280;62916;50.044;15.938;2023-01-01T03:24:59;99413.56;;;21.54;51.09
74466;BME280;62916;50.044;15.938;2023-01-01T03:27:33;99413.98;;;21.53;51.19
74466;BME280;62916;50.044;15.938;2023-01-01T03:30:10;99419.73;;;21.53;51.13
74466;BME280;62916;50.044;15.938;2023-01-01T03:32:45;99411.80;;;21.54;51.42
74466;BME280;62916;50.044;15.938;2023-01-01T03:35:39;99407.71;;;21.53;51.31
74466;BME280;62916;50.044;15.938;2023-01-01T03:38:15;99413.48;;;21.53;51.12
74466;BME280;62916;50.044;15.938;2023-01-01T03:40:50;99416.47;;;21.53;51.31
74466;BME280;62916;50.044;15.938;2023-01-01T03:43:30;99422.52;;;21.53;51.38
74466;BME280;62916;50.044;15.938;2023-01-01T03:46:04;99420.16;;;21.52;51.38
74466;BME280;62916;50.044;15.938;2023-01-01T03:48:37;99414.25;;;21.54;51.50
74466;BME280;62916;50.044;15.938;2023-01-01T03:51:40;99417.35;;;21.54;51.23
74466;BME280;62916;50.044;15.938;2023-01-01T03:54:24;99416.03;;;21.55;51.15
74466;BME280;62916;50.044;15.938;2023-01-01T03:57:00;99418.55;;;21.55;51.45
74466;BME280;62916;50.044;15.938;2023-01-01T03:59:41;99416.23;;;21.56;51.44
74466;BME280;62916;50.044;15.938;2023-01-01T04:02:12;99415.30;;;21.57;51.42
74466;BME280;62916;50.044;15.938;2023-01-01T04:04:45;99411.60;;;21.54;51.33
74466;BME280;62916;50.044;15.938;2023-01-01T04:07:17;99409.17;;;21.54;51.26
74466;BME280;62916;50.044;15.938;2023-01-01T04:09:50;99409.47;;;21.53;51.54
74466;BME280;62916;50.044;15.938;2023-01-01T04:12:23;99404.18;;;21.52;51.39
74466;BME280;62916;50.044;15.938;2023-01-01T04:14:54;99405.27;;;21.52;51.52
74466;BME280;62916;50.044;15.938;2023-01-01T04:17:25;99401.80;;;21.50;51.42
74466;BME280;62916;50.044;15.938;2023-01-01T04:19:56;99398.60;;;21.49;51.48
74466;BME280;62916;50.044;15.938;2023-01-01T04:22:27;99396.52;;;21.50;51.39
74466;BME280;62916;50.044;15.938;2023-01-01T04:24:57;99395.65;;;21.48;51.46
74466;BME280;62916;50.044;15.938;2023-01-01T04:27:28;99400.12;;;21.46;51.56
74466;BME280;62916;50.044;15.938;2023-01-01T04:29:59;99406.26;;;21.46;51.47
74466;BME280;62916;50.044;15.938;2023-01-01T04:32:31;99412.10;;;21.45;51.41
74466;BME280;62916;50.044;15.938;2023-01-01T04:35:02;99414.45;;;21.44;51.57
74466;BME280;62916;50.044;15.938;2023-01-01T04:37:35;99419.31;;;21.43;51.69
74466;BME280;62916;50.044;15.938;2023-01-01T04:40:08;99424.72;;;21.43;51.57
74466;BME280;62916;50.044;15.938;2023-01-01T04:42:39;99427.61;;;21.43;51.70
74466;BME280;62916;50.044;15.938;2023-01-01T04:45:11;99427.73;;;21.42;51.52
74466;BME280;62916;50.044;15.938;2023-01-01T04:47:44;99434.50;;;21.42;51.64
74466;BME280;62916;50.044;15.938;2023-01-01T04:50:15;99439.27;;;21.44;51.74
74466;BME280;62916;50.044;15.938;2023-01-01T04:52:46;99445.61;;;21.43;51.64
74466;BME280;62916;50.044;15.938;2023-01-01T04:55:19;99451.90;;;21.42;51.63
74466;BME280;62916;50.044;15.938;2023-01-01T04:57:50;99456.29;;;21.43;51.87
74466;BME280;62916;50.044;15.938;2023-01-01T05:00:21;99452.98;;;21.44;51.81
74466;BME280;62916;50.044;15.938;2023-01-01T05:02:52;99457.95;;;21.45;51.86
74466;BME280;62916;50.044;15.938;2023-01-01T05:05:24;99457.23;;;21.44;51.67
74466;BME280;62916;50.044;15.938;2023-01-01T05:07:55;99457.52;;;21.43;51.72
74466;BME280;62916;50.044;15.938;2023-01-01T05:10:26;99466.02;;;21.42;51.70
74466;BME280;62916;50.044;15.938;2023-01-01T05:12:56;99468.08;;;21.40;51.68
74466;BME280;62916;50.044;15.938;2023-01-01T05:15:27;99471.13;;;21.40;51.83
74466;BME280;62916;50.044;15.938;2023-01-01T05:17:58;99471.13;;;21.40;51.69
74466;BME280;62916;50.044;15.938;2023-01-01T05:20:29;99469.63;;;21.39;51.57
74466;BME280;62916;50.044;15.938;2023-01-01T05:23:00;99468.73;;;21.39;51.69
74466;BME280;62916;50.044;15.938;2023-01-01T05:25:30;99472.81;;;21.38;51.53
74466;BME280;62916;50.044;15.938;2023-01-01T05:28:01;99474.98;;;21.37;51.83
74466;BME280;62916;50.044;15.938;2023-01-01T05:30:32;99473.83;;;21.30;51.68
74466;BME280;62916;50.044;15.938;2023-01-01T05:33:03;99484.11;;;21.33;51.70
74466;BME280;62916;50.044;15.938;2023-01-01T05:35:33;99485.80;;;21.33;51.64
74466;BME280;62916;50.044;15.938;2023-01-01T05:38:04;99479.05;;;21.31;51.79
74466;BME280;62916;50.044;15.938;2023-01-01T05:40:36;99478.27;;;21.29;51.73
74466;BME280;62916;50.044;15.938;2023-01-01T05:43:08;99484.05;;;21.27;51.77
74466;BME280;62916;50.044;15.938;2023-01-01T05:45:38;99485.42;;;21.27;51.78
74466;BME280;62916;50.044;15.938;2023-01-01T05:48:09;99480.08;;;21.28;51.73
74466;BME280;62916;50.044;15.938;2023-01-01T05:50:40;99483.47;;;21.28;51.89
74466;BME280;62916;50.044;15.938;2023-01-01T05:53:11;99484.44;;;21.28;51.89
74466;BME280;62916;50.044;15.938;2023-01-01T05:55:41;99483.01;;;21.29;51.75
74466;BME280;62916;50.044;15.938;2023-01-01T05:58:12;99484.69;;;21.29;51.88
74466;BME280;62916;50.044;15.938;2023-01-01T06:00:43;99485.10;;;21.29;51.79
74466;BME280;62916;50.044;15.938;2023-01-01T06:03:13;99491.73;;;21.28;51.73
74466;BME280;62916;50.044;15.938;2023-01-01T06:05:44;99496.95;;;21.29;51.63
74466;BME280;62916;50.044;15.938;2023-01-01T06:08:15;99508.50;;;21.29;51.77
74466;BME280;62916;50.044;15.938;2023-01-01T06:10:46;99504.25;;;21.30;51.72
74466;BME280;62916;50.044;15.938;2023-01-01T06:13:17;99511.98;;;21.28;51.76
74466;BME280;62916;50.044;15.938;2023-01-01T06:15:55;99516.05;;;21.27;51.98
74466;BME280;62916;50.044;15.938;2023-01-01T06:18:27;99519.21;;;21.27;51.95
74466;BME280;62916;50.044;15.938;2023-01-01T06:21:06;99522.38;;;21.28;51.93
74466;BME280;62916;50.044;15.938;2023-01-01T06:23:37;99525.23;;;21.25;52.06
74466;BME280;62916;50.044;15.938;2023-01-01T06:26:09;99521.90;;;21.24;51.92
74466;BME280;62916;50.044;15.938;2023-01-01T06:28:41;99525.32;;;21.24;51.82
74466;BME280;62916;50.044;15.938;2023-01-01T06:31:14;99521.66;;;21.24;52.16
74466;BME280;62916;50.044;15.938;2023-01-01T06:33:45;99521.84;;;21.24;52.17
74466;BME280;62916;50.044;15.938;2023-01-01T06:36:19;99521.21;;;21.24;52.04
74466;BME280;62916;50.044;15.938;2023-01-01T06:38:51;99520.19;;;21.25;52.24
74466;BME280;62916;50.044;15.938;2023-01-01T06:41:24;99518.72;;;21.24;52.20
74466;BME280;62916;50.044;15.938;2023-01-01T06:43:57;99518.58;;;21.23;52.28
74466;BME280;62916;50.044;15.938;2023-01-01T06:46:31;99515.08;;;21.23;52.15
74466;BME280;62916;50.044;15.938;2023-01-01T06:49:04;99514.34;;;21.23;52.27
74466;BME280;62916;50.044;15.938;2023-01-01T06:51:38;99517.17;;;21.23;52.07
74466;BME280;62916;50.044;15.938;2023-01-01T06:54:09;99520.91;;;21.22;52.18
74466;BME280;62916;50.044;15.938;2023-01-01T06:56:40;99526.67;;;21.21;52.20
74466;BME280;62916;50.044;15.938;2023-01-01T06:59:11;99538.71;;;21.20;52.02
74466;BME280;62916;50.044;15.938;2023-01-01T07:01:42;99540.48;;;21.19;52.18
74466;BME280;62916;50.044;15.938;2023-01-01T07:04:14;99547.34;;;21.18;52.18
74466;BME280;62916;50.044;15.938;2023-01-01T07:06:45;99548.23;;;21.14;52.08
74466;BME280;62916;50.044;15.938;2023-01-01T07:09:16;99548.88;;;21.10;52.30
74466;BME280;62916;50.044;15.938;2023-01-01T07:11:46;99543.76;;;21.10;52.38
74466;BME280;62916;50.044;15.938;2023-01-01T07:14:17;99548.36;;;21.11;52.19
74466;BME280;62916;50.044;15.938;2023-01-01T07:16:48;99555.52;;;21.11;52.28
74466;BME280;62916;50.044;15.938;2023-01-01T07:19:18;99556.55;;;21.11;52.03
74466;BME280;62916;50.044;15.938;2023-01-01T07:21:53;99560.12;;;21.10;52.17
74466;BME280;62916;50.044;15.938;2023-01-01T07:24:24;99564.98;;;21.09;52.24
74466;BME280;62916;50.044;15.938;2023-01-01T07:26:55;99576.95;;;21.08;52.27
74466;BME280;62916;50.044;15.938;2023-01-01T07:29:26;99590.48;;;21.08;52.39
74466;BME280;62916;50.044;15.938;2023-01-01T07:31:57;99603.88;;;21.08;52.18
74466;BME280;62916;50.044;15.938;2023-01-01T07:34:28;99600.05;;;21.08;52.34
74466;BME280;62916;50.044;15.938;2023-01-01T07:36:59;99594.50;;;21.08;52.22
74466;BME280;62916;50.044;15.938;2023-01-01T07:39:30;99599.82;;;21.08;52.33
74466;BME280;62916;50.044;15.938;2023-01-01T07:42:00;99600.27;;;21.06;52.29
74466;BME280;62916;50.044;15.938;2023-01-01T07:44:39;99598.92;;;21.02;52.13
74466;BME280;62916;50.044;15.938;2023-01-01T07:47:17;99606.61;;;21.00;52.35
74466;BME280;62916;50.044;15.938;2023-01-01T07:49:50;99609.77;;;21.01;52.24
74466;BME280;62916;50.044;15.938;2023-01-01T07:52:21;99609.95;;;21.00;52.29
74466;BME280;62916;50.044;15.938;2023-01-01T07:54:52;99616.11;;;20.99;52.39
74466;BME280;62916;50.044;15.938;2023-01-01T07:57:22;99627.15;;;20.97;52.57
74466;BME280;62916;50.044;15.938;2023-01-01T07:59:53;99625.23;;;20.95;52.42
74466;BME280;62916;50.044;15.938;2023-01-01T08:02:24;99629.98;;;21.00;52.64
74466;BME280;62916;50.044;15.938;2023-01-01T08:04:55;99632.74;;;21.03;52.42
74466;BME280;62916;50.044;15.938;2023-01-01T08:07:26;99632.38;;;21.05;52.46
74466;BME280;62916;50.044;15.938;2023-01-01T08:09:57;99633.24;;;21.04;52.39
74466;BME280;62916;50.044;15.938;2023-01-01T08:12:28;99637.25;;;21.03;52.61
74466;BME280;62916;50.044;15.938;2023-01-01T08:14:59;99644.63;;;21.04;52.39
74466;BME280;62916;50.044;15.938;2023-01-01T08:17:29;99650.77;;;21.04;52.53
74466;BME280;62916;50.044;15.938;2023-01-01T08:20:00;99650.85;;;21.03;52.56
74466;BME280;62916;50.044;15.938;2023-01-01T08:22:31;99652.23;;;21.02;52.66
74466;BME280;62916;50.044;15.938;2023-01-01T08:25:02;99650.99;;;21.01;52.52
74466;BME280;62916;50.044;15.938;2023-01-01T08:27:33;99646.88;;;21.01;52.45
74466;BME280;62916;50.044;15.938;2023-01-01T08:30:05;99642.87;;;21.01;52.64
74466;BME280;62916;50.044;15.938;2023-01-01T08:32:36;99639.57;;;21.03;52.85
74466;BME280;62916;50.044;15.938;2023-01-01T08:35:08;99638.58;;;21.05;52.79
74466;BME280;62916;50.044;15.938;2023-01-01T08:37:39;99633.05;;;21.07;52.77
74466;BME280;62916;50.044;15.938;2023-01-01T08:40:12;99623.02;;;21.06;52.88
74466;BME280;62916;50.044;15.938;2023-01-01T08:42:43;99634.27;;;21.11;52.68
74466;BME280;62916;50.044;15.938;2023-01-01T08:45:14;99636.94;;;21.14;52.60
74466;BME280;62916;50.044;15.938;2023-01-01T08:47:45;99641.13;;;21.16;52.54
74466;BME280;62916;50.044;15.938;2023-01-01T08:50:16;99644.25;;;21.19;52.54
74466;BME280;62916;50.044;15.938;2023-01-01T08:52:47;99644.84;;;21.20;52.43
74466;BME280;62916;50.044;15.938;2023-01-01T08:55:18;99644.30;;;21.22;52.56
74466;BME280;62916;50.044;15.938;2023-01-01T08:57:48;99642.39;;;21.25;52.31
74466;BME280;62916;50.044;15.938;2023-01-01T09:00:19;99645.45;;;21.26;52.29
74466;BME280;62916;50.044;15.938;2023-01-01T09:02:50;99648.19;;;21.27;52.34
74466;BME280;62916;50.044;15.938;2023-01-01T09:05:21;99658.89;;;21.32;52.42
74466;BME280;62916;50.044;15.938;2023-01-01T09:07:52;99659.71;;;21.33;52.07
74466;BME280;62916;50.044;15.938;2023-01-01T09:10:23;99654.61;;;21.34;51.91
74466;BME280;62916;50.044;15.938;2023-01-01T09:12:55;99661.31;;;21.36;51.81
74466;BME280;62916;50.044;15.938;2023-01-01T09:15:28;99661.92;;;21.36;51.69
74466;BME280;62916;50.044;15.938;2023-01-01T09:17:59;99666.99;;;21.36;51.53
74466;BME280;62916;50.044;15.938;2023-01-01T09:20:30;99667.23;;;21.38;51.45
74466;BME280;62916;50.044;15.938;2023-01-01T09:23:01;99661.23;;;21.38;51.51
74466;BME280;62916;50.044;15.938;2023-01-01T09:25:34;99661.48;;;21.40;51.34
74466;BME280;62916;50.044;15.938;2023-01-01T09:28:29;99659.14;;;21.41;51.25
74466;BME280;62916;50.044;15.938;2023-01-01T09:31:00;99658.71;;;21.44;51.19
74466;BME280;62916;50.044;15.938;2023-01-01T09:33:34;99654.05;;;21.45;51.23
74466;BME280;62916;50.044;15.938;2023-01-01T09:36:25;99661.33;;;21.45;51.14
74466;BME280;62916;50.044;15.938;2023-01-01T09:38:57;99661.61;;;21.46;50.96
74466;BME280;62916;50.044;15.938;2023-01-01T09:41:37;99660.63;;;21.47;50.91
74466;BME280;62916;50.044;15.938;2023-01-01T09:44:20;99654.08;;;21.47;50.67
74466;BME280;62916;50.044;15.938;2023-01-01T09:46:59;99657.77;;;21.46;50.94
74466;BME280;62916;50.044;15.938;2023-01-01T09:49:33;99649.83;;;21.47;50.96
74466;BME280;62916;50.044;15.938;2023-01-01T09:52:05;99646.93;;;21.50;50.94
74466;BME280;62916;50.044;15.938;2023-01-01T09:54:38;99648.45;;;21.54;50.82
74466;BME280;62916;50.044;15.938;2023-01-01T09:57:12;99652.77;;;21.58;50.88
74466;BME280;62916;50.044;15.938;2023-01-01T09:59:48;99655.98;;;21.60;50.91
74466;BME280;62916;50.044;15.938;2023-01-01T10:02:34;99652.59;;;21.63;50.80
74466;BME280;62916;50.044;15.938;2023-01-01T10:05:19;99649.70;;;21.64;50.84
74466;BME280;62916;50.044;15.938;2023-01-01T10:07:55;99646.11;;;21.66;50.82
74466;BME280;62916;50.044;15.938;2023-01-01T10:10:37;99644.48;;;21.67;50.58
74466;BME280;62916;50.044;15.938;2023-01-01T10:13:17;99640.36;;;21.69;50.49
74466;BME280;62916;50.044;15.938;2023-01-01T10:15:55;99642.05;;;21.73;50.63
74466;BME280;62916;50.044;15.938;2023-01-01T10:18:30;99642.30;;;21.77;50.63
74466;BME280;62916;50.044;15.938;2023-01-01T10:21:08;99649.95;;;21.80;50.56
74466;BME280;62916;50.044;15.938;2023-01-01T10:23:43;99650.30;;;21.82;50.39
74466;BME280;62916;50.044;15.938;2023-01-01T10:26:19;99661.55;;;21.85;50.23
74466;BME280;62916;50.044;15.938;2023-01-01T10:28:56;99662.28;;;21.90;50.24
74466;BME280;62916;50.044;15.938;2023-01-01T10:31:33;99659.31;;;21.94;50.14
74466;BME280;62916;50.044;15.938;2023-01-01T10:34:13;99665.49;;;21.99;49.99
74466;BME280;62916;50.044;15.938;2023-01-01T10:36:45;99666.49;;;22.02;50.00
74466;BME280;62916;50.044;15.938;2023-01-01T10:39:16;99660.18;;;22.02;49.81
74466;BME280;62916;50.044;15.938;2023-01-01T10:41:48;99659.92;;;22.09;49.70
74466;BME280;62916;50.044;15.938;2023-01-01T10:44:24;99656.41;;;22.11;49.88
74466;BME280;62916;50.044;15.938;2023-01-01T10:46:57;99656.23;;;22.13;49.68
74466;BME280;62916;50.044;15.938;2023-01-01T10:49:28;99655.77;;;22.15;49.45
74466;BME280;62916;50.044;15.938;2023-01-01T10:51:59;99649.73;;;22.17;49.71
74466;BME280;62916;50.044;15.938;2023-01-01T10:54:34;99645.89;;;22.19;49.69
74466;BME280;62916;50.044;15.938;2023-01-01T10:57:15;99642.67;;;22.21;49.68
74466;BME280;62916;50.044;15.938;2023-01-01T10:59:47;99648.13;;;22.24;49.60
74466;BME280;62916;50.044;15.938;2023-01-01T11:02:24;99647.04;;;22.28;49.69
74466;BME280;62916;50.044;15.938;2023-01-01T11:05:14;99650.39;;;22.30;49.55
74466;BME280;62916;50.044;15.938;2023-01-01T11:07:50;99649.11;;;22.35;49.34
74466;BME280;62916;50.044;15.938;2023-01-01T11:10:23;99651.20;;;22.37;49.37
74466;BME280;62916;50.044;15.938;2023-01-01T11:12:54;99647.11;;;22.40;49.31
74466;BME280;62916;50.044;15.938;2023-01-01T11:15:38;99644.75;;;22.42;49.25
74466;BME280;62916;50.044;15.938;2023-01-01T11:18:13;99643.98;;;22.44;49.07
74466;BME280;62916;50.044;15.938;2023-01-01T11:20:44;99644.99;;;22.46;49.14
74466;BME280;62916;50.044;15.938;2023-01-01T11:23:31;99650.60;;;22.49;49.09
74466;BME280;62916;50.044;15.938;2023-01-01T11:26:06;99646.70;;;22.50;49.04
74466;BME280;62916;50.044;15.938;2023-01-01T11:29:00;99640.19;;;22.50;49.03
74466;BME280;62916;50.044;15.938;2023-01-01T11:31:35;99638.95;;;22.53;49.09
74466;BME280;62916;50.044;15.938;2023-01-01T11:34:23;99633.20;;;22.54;49.15
74466;BME280;62916;50.044;15.938;2023-01-01T11:37:14;99632.07;;;22.57;48.98
74466;BME280;62916;50.044;15.938;2023-01-01T11:39:49;99624.67;;;22.59;48.88
74466;BME280;62916;50.044;15.938;2023-01-01T11:42:22;99628.66;;;22.63;48.77
74466;BME280;62916;50.044;15.938;2023-01-01T11:44:56;99627.61;;;22.67;48.96
74466;BME280;62916;50.044;15.938;2023-01-01T11:47:30;99622.38;;;22.72;48.58
74466;BME280;62916;50.044;15.938;2023-01-01T11:50:12;99631.56;;;22.77;48.47
74466;BME280;62916;50.044;15.938;2023-01-01T11:52:49;99633.22;;;22.79;48.40
74466;BME280;62916;50.044;15.938;2023-01-01T11:55:26;99630.02;;;22.82;48.43
74466;BME280;62916;50.044;15.938;2023-01-01T11:58:05;99629.73;;;22.84;48.34
74466;BME280;62916;50.044;15.938;2023-01-01T12:00:49;99629.86;;;22.86;48.40
74466;BME280;62916;50.044;15.938;2023-01-01T12:03:26;99628.05;;;22.88;48.26
74466;BME280;62916;50.044;15.938;2023-01-01T12:06:05;99624.29;;;22.89;48.11
74466;BME280;62916;50.044;15.938;2023-01-01T12:08:41;99620.99;;;22.91;48.18
74466;BME280;62916;50.044;15.938;2023-01-01T12:11:20;99619.20;;;22.93;48.22
74466;BME280;62916;50.044;15.938;2023-01-01T12:13:58;99615.41;;;22.93;47.99
74466;BME280;62916;50.044;15.938;2023-01-01T12:16:40;99617.67;;;22.92;48.17
74466;BME280;62916;50.044;15.938;2023-01-01T12:19:19;99620.48;;;22.94;48.05
74466;BME280;62916;50.044;15.938;2023-01-01T12:21:56;99624.88;;;22.94;48.09
74466;BME280;62916;50.044;15.938;2023-01-01T12:24:32;99629.09;;;22.96;48.11
74466;BME280;62916;50.044;15.938;2023-01-01T12:27:16;99623.89;;;22.97;48.06
74466;BME280;62916;50.044;15.938;2023-01-01T12:30:11;99624.48;;;22.99;47.90
74466;BME280;62916;50.044;15.938;2023-01-01T12:33:00;99624.30;;;23.00;48.01
74466;BME280;62916;50.044;15.938;2023-01-01T12:35:51;99624.28;;;23.03;48.04
74466;BME280;62916;50.044;15.938;2023-01-01T12:38:38;99617.45;;;23.05;47.86
74466;BME280;62916;50.044;15.938;2023-01-01T12:41:21;99617.96;;;23.07;47.80
74466;BME280;62916;50.044;15.938;2023-01-01T12:44:02;99615.98;;;23.09;47.75
74466;BME280;62916;50.044;15.938;2023-01-01T12:46:49;99616.16;;;23.10;47.80
74466;BME280;62916;50.044;15.938;2023-01-01T12:49:43;99619.63;;;23.10;47.76
74466;BME280;62916;50.044;15.938;2023-01-01T12:52:29;99621.96;;;23.11;47.68
74466;BME280;62916;50.044;15.938;2023-01-01T12:55:28;99624.13;;;23.11;47.68
74466;BME280;62916;50.044;15.938;2023-01-01T12:58:09;99619.94;;;23.09;47.60
74466;BME280;62916;50.044;15.938;2023-01-01T13:00:45;99621.05;;;23.11;47.64
74466;BME280;62916;50.044;15.938;2023-01-01T13:03:20;99621.60;;;23.12;47.57
74466;BME280;62916;50.044;15.938;2023-01-01T13:05:55;99618.08;;;23.13;47.54
74466;BME280;62916;50.044;15.938;2023-01-01T13:08:27;99622.20;;;23.13;47.50
74466;BME280;62916;50.044;15.938;2023-01-01T13:10:59;99626.94;;;23.14;47.47
74466;BME280;62916;50.044;15.938;2023-01-01T13:13:32;99631.06;;;23.14;47.44
74466;BME280;62916;50.044;15.938;2023-01-01T13:16:04;99636.59;;;23.14;47.41
74466;BME280;62916;50.044;15.938;2023-01-01T13:18:36;99636.99;;;23.14;47.39
74466;BME280;62916;50.044;15.938;2023-01-01T13:21:21;99638.59;;;23.14;47.37
74466;BME280;62916;50.044;15.938;2023-01-01T13:23:58;99641.38;;;23.13;47.57
74466;BME280;62916;50.044;15.938;2023-01-01T13:26:37;99645.23;;;23.13;47.64
74466;BME280;62916;50.044;15.938;2023-01-01T13:32:15;99644.00;;;23.12;47.47